createdAt,value
2018-06-19T00:00:02.887Z,1012.21
2018-06-19T00:01:02.652Z,1012.22
2018-06-19T00:02:02.558Z,1012.20
2018-06-19T00:03:02.579Z,1012.18
2018-06-19T00:04:02.558Z,1012.18
2018-06-19T00:05:02.587Z,1012.20
2018-06-19T00:06:02.606Z,1012.18
2018-06-19T00:08:02.442Z,1012.12
2018-06-19T00:09:02.493Z,1012.12
2018-06-19T00:10:02.481Z,1012.16
2018-06-19T00:11:02.463Z,1012.14
2018-06-19T00:12:02.421Z,1012.15
2018-06-19T00:13:02.356Z,1012.16
2018-06-19T00:14:02.725Z,1012.15
2018-06-19T00:15:02.411Z,1012.16
2018-06-19T00:16:02.397Z,1012.19
2018-06-19T00:17:02.424Z,1012.19
2018-06-19T00:18:02.392Z,1012.15
2018-06-19T00:19:02.304Z,1012.14
2018-06-19T00:20:02.266Z,1012.15
2018-06-19T00:21:02.568Z,1012.12
2018-06-19T00:22:02.240Z,1012.13
2018-06-19T00:23:02.226Z,1012.13
2018-06-19T00:24:02.338Z,1012.07
2018-06-19T00:25:02.230Z,1012.14
2018-06-19T00:27:02.516Z,1012.20
2018-06-19T00:28:02.234Z,1012.18
2018-06-19T00:29:02.132Z,1012.18
2018-06-19T00:30:02.181Z,1012.18
2018-06-19T00:31:02.110Z,1012.14
2018-06-19T00:32:02.101Z,1012.12
2018-06-19T00:33:02.095Z,1012.17
2018-06-19T00:34:02.393Z,1012.10
2018-06-19T00:35:02.170Z,1012.12
2018-06-19T00:36:02.121Z,1012.10
2018-06-19T00:37:02.121Z,1012.08
2018-06-19T00:38:02.014Z,1012.05
2018-06-19T00:39:01.993Z,1012.04
2018-06-19T00:40:01.993Z,1012.03
2018-06-19T00:41:02.280Z,1012.02
2018-06-19T00:42:02.120Z,1012.02
2018-06-19T00:43:01.948Z,1012.01
2018-06-19T00:44:01.938Z,1012.00
2018-06-19T00:45:01.924Z,1012.01
2018-06-19T00:46:01.912Z,1012.02
2018-06-19T00:47:01.972Z,1011.99
2018-06-19T00:48:02.239Z,1012.02
2018-06-19T00:49:01.868Z,1012.01
2018-06-19T00:50:01.928Z,1012.01
2018-06-19T00:51:01.930Z,1012.02
2018-06-19T00:52:01.825Z,1011.99
2018-06-19T00:53:01.810Z,1012.00
2018-06-19T00:54:02.159Z,1012.01
2018-06-19T00:55:01.776Z,1011.98
2018-06-19T00:56:01.761Z,1011.99
2018-06-19T00:57:01.752Z,1011.95
2018-06-19T00:58:01.743Z,1012.01
2018-06-19T00:59:01.741Z,1012.02
2018-06-19T01:00:02.065Z,1012.02
2018-06-19T01:01:01.702Z,1012.03
2018-06-19T01:02:01.686Z,1012.08
2018-06-19T01:03:01.675Z,1012.08
2018-06-19T01:06:02.004Z,1012.08
2018-06-19T01:07:01.621Z,1012.11
2018-06-19T01:08:01.611Z,1012.07
2018-06-19T01:10:01.593Z,1012.08
2018-06-19T01:12:01.897Z,1012.09
2018-06-19T01:13:01.523Z,1012.13
2018-06-19T01:14:01.562Z,1012.12
2018-06-19T01:16:01.488Z,1012.14
2018-06-19T01:17:01.471Z,1012.20
2018-06-19T01:18:01.807Z,1012.13
2018-06-19T01:19:01.520Z,1012.16
2018-06-19T01:20:01.420Z,1012.20
2018-06-19T01:21:01.486Z,1012.21
2018-06-19T01:22:01.401Z,1012.23
2018-06-19T01:24:01.732Z,1012.20
2018-06-19T01:25:01.364Z,1012.23
2018-06-19T01:26:01.362Z,1012.21
2018-06-19T01:27:01.345Z,1012.20
2018-06-19T01:28:01.324Z,1012.22
2018-06-19T01:29:01.376Z,1012.19
2018-06-19T01:30:01.880Z,1012.18
2018-06-19T01:31:01.266Z,1012.21
2018-06-19T01:32:01.363Z,1012.21
2018-06-19T01:33:01.244Z,1012.26
2018-06-19T01:34:01.233Z,1012.26
2018-06-19T01:35:01.215Z,1012.20
2018-06-19T01:36:01.385Z,1012.25
2018-06-19T01:37:01.546Z,1012.27
2018-06-19T01:38:01.199Z,1012.29
2018-06-19T01:39:01.179Z,1012.24
2018-06-19T01:40:01.155Z,1012.23
2018-06-19T01:41:01.149Z,1012.18
2018-06-19T01:42:01.165Z,1012.22
2018-06-19T01:44:01.390Z,1012.18
2018-06-19T01:45:01.134Z,1012.19
2018-06-19T01:46:01.066Z,1012.15
2018-06-19T01:47:01.045Z,1012.16
2018-06-19T01:48:01.090Z,1012.19
2018-06-19T01:49:01.015Z,1012.24
2018-06-19T01:50:01.001Z,1012.25
2018-06-19T01:51:02.293Z,1012.24
2018-06-19T01:52:00.980Z,1012.21
2018-06-19T01:54:00.994Z,1012.19
2018-06-19T01:55:01.036Z,1012.20
2018-06-19T01:56:00.996Z,1012.22
2018-06-19T01:57:00.915Z,1012.23
2018-06-19T01:58:01.277Z,1012.26
2018-06-19T01:59:00.945Z,1012.20
2018-06-19T02:00:01.010Z,1012.24
2018-06-19T02:01:00.940Z,1012.23
2018-06-19T02:02:00.824Z,1012.21
2018-06-19T02:03:00.815Z,1012.22
2018-06-19T02:04:00.792Z,1012.18
2018-06-19T02:06:00.820Z,1012.22
2018-06-19T02:07:00.753Z,1012.21
2018-06-19T02:08:00.749Z,1012.23
2018-06-19T02:09:00.725Z,1012.18
2018-06-19T02:10:00.803Z,1012.22
2018-06-19T02:11:00.696Z,1012.19
2018-06-19T02:12:01.069Z,1012.15
2018-06-19T02:13:00.672Z,1012.18
2018-06-19T02:14:00.699Z,1012.17
2018-06-19T02:15:00.654Z,1012.20
2018-06-19T02:17:00.610Z,1012.23
2018-06-19T02:18:00.757Z,1012.28
2018-06-19T02:19:00.982Z,1012.26
2018-06-19T02:20:00.568Z,1012.26
2018-06-19T02:21:00.551Z,1012.24
2018-06-19T02:22:00.618Z,1012.24
2018-06-19T02:25:00.843Z,1012.27
2018-06-19T02:26:00.498Z,1012.24
2018-06-19T02:27:00.490Z,1012.27
2018-06-19T02:28:00.481Z,1012.26
2018-06-19T02:29:00.436Z,1012.22
2018-06-19T02:30:00.479Z,1012.24
2018-06-19T02:31:00.813Z,1012.20
2018-06-19T02:32:00.383Z,1012.20
2018-06-19T02:33:00.367Z,1012.20
2018-06-19T02:34:00.419Z,1012.21
2018-06-19T02:35:00.336Z,1012.17
2018-06-19T02:36:00.339Z,1012.18
2018-06-19T02:37:00.669Z,1012.21
2018-06-19T02:38:00.353Z,1012.20
2018-06-19T02:39:00.283Z,1012.15
2018-06-19T02:40:00.544Z,1012.19
2018-06-19T02:41:00.461Z,1012.20
2018-06-19T02:42:00.256Z,1012.18
2018-06-19T02:43:00.577Z,1012.19
2018-06-19T02:44:00.286Z,1012.21
2018-06-19T02:45:00.199Z,1012.19
2018-06-19T02:47:00.160Z,1012.23
2018-06-19T02:48:00.148Z,1012.24
2018-06-19T02:49:00.483Z,1012.27
2018-06-19T02:50:00.124Z,1012.25
2018-06-19T02:51:00.121Z,1012.26
2018-06-19T02:52:00.098Z,1012.27
2018-06-19T02:53:00.163Z,1012.23
2018-06-19T02:54:00.058Z,1012.29
2018-06-19T02:56:00.035Z,1012.24
2018-06-19T02:57:00.031Z,1012.23
2018-06-19T02:58:00.009Z,1012.23
2018-06-19T02:59:00.101Z,1012.21
2018-06-19T02:59:59.997Z,1012.24
2018-06-19T03:02:00.641Z,1012.24
2018-06-19T03:03:00.336Z,1012.26
2018-06-19T03:03:59.992Z,1012.27
2018-06-19T03:04:59.897Z,1012.29
2018-06-19T03:05:59.983Z,1012.29
2018-06-19T03:06:59.872Z,1012.26
2018-06-19T03:09:00.251Z,1012.23
2018-06-19T03:09:59.820Z,1012.25
2018-06-19T03:10:59.817Z,1012.23
2018-06-19T03:11:59.889Z,1012.26
2018-06-19T03:12:59.782Z,1012.20
2018-06-19T03:13:59.846Z,1012.23
2018-06-19T03:14:59.875Z,1012.22
2018-06-19T03:16:00.034Z,1012.21
2018-06-19T03:16:59.715Z,1012.26
2018-06-19T03:17:59.798Z,1012.29
2018-06-19T03:18:59.687Z,1012.25
2018-06-19T03:19:59.735Z,1012.26
2018-06-19T03:20:59.732Z,1012.27
2018-06-19T03:21:59.648Z,1012.23
2018-06-19T03:22:59.943Z,1012.29
2018-06-19T03:23:59.620Z,1012.28
2018-06-19T03:24:59.604Z,1012.30
2018-06-19T03:25:59.710Z,1012.36
2018-06-19T03:26:59.633Z,1012.35
2018-06-19T03:27:59.638Z,1012.42
2018-06-19T03:28:59.837Z,1012.40
2018-06-19T03:29:59.821Z,1012.37
2018-06-19T03:30:59.621Z,1012.36
2018-06-19T03:31:59.591Z,1012.34
2018-06-19T03:32:59.645Z,1012.37
2018-06-19T03:33:59.551Z,1012.37
2018-06-19T03:34:59.543Z,1012.32
2018-06-19T03:35:59.432Z,1012.37
2018-06-19T03:36:59.802Z,1012.38
2018-06-19T03:37:59.410Z,1012.40
2018-06-19T03:38:59.520Z,1012.38
2018-06-19T03:41:59.350Z,1012.40
2018-06-19T03:42:59.336Z,1012.41
2018-06-19T03:43:59.695Z,1012.41
2018-06-19T03:44:59.460Z,1012.41
2018-06-19T03:46:59.460Z,1012.37
2018-06-19T03:47:59.259Z,1012.38
2018-06-19T03:48:59.244Z,1012.34
2018-06-19T03:49:59.234Z,1012.39
2018-06-19T03:50:59.572Z,1012.39
2018-06-19T03:51:59.200Z,1012.40
2018-06-19T03:52:59.182Z,1012.43
2018-06-19T03:53:59.176Z,1012.39
2018-06-19T03:54:59.165Z,1012.46
2018-06-19T03:55:59.213Z,1012.41
2018-06-19T03:56:59.469Z,1012.45
2018-06-19T03:57:59.185Z,1012.48
2018-06-19T03:58:59.091Z,1012.41
2018-06-19T03:59:59.157Z,1012.46
2018-06-19T04:00:59.245Z,1012.42
2018-06-19T04:01:59.151Z,1012.39
2018-06-19T04:02:59.379Z,1012.50
2018-06-19T04:03:59.017Z,1012.43
2018-06-19T04:04:59.006Z,1012.43
2018-06-19T04:05:58.989Z,1012.39
2018-06-19T04:06:59.117Z,1012.39
2018-06-19T04:07:58.975Z,1012.46
2018-06-19T04:08:59.327Z,1012.39
2018-06-19T04:09:59.011Z,1012.40
2018-06-19T04:10:59.011Z,1012.46
2018-06-19T04:11:58.905Z,1012.43
2018-06-19T04:12:58.900Z,1012.45
2018-06-19T04:13:58.880Z,1012.47
2018-06-19T04:14:59.218Z,1012.50
2018-06-19T04:15:58.849Z,1012.49
2018-06-19T04:16:58.910Z,1012.46
2018-06-19T04:17:58.823Z,1012.46
2018-06-19T04:18:58.882Z,1012.52
2018-06-19T04:19:58.792Z,1012.50
2018-06-19T04:21:58.772Z,1012.52
2018-06-19T04:22:58.752Z,1012.55
2018-06-19T04:23:58.738Z,1012.57
2018-06-19T04:24:58.800Z,1012.60
2018-06-19T04:25:58.820Z,1012.64
2018-06-19T04:26:59.051Z,1012.57
2018-06-19T04:29:58.649Z,1012.61
2018-06-19T04:30:58.712Z,1012.61
2018-06-19T04:31:58.620Z,1012.62
2018-06-19T04:32:58.656Z,1012.61
2018-06-19T04:33:58.971Z,1012.64
2018-06-19T04:34:58.586Z,1012.59
2018-06-19T04:35:58.572Z,1012.66
2018-06-19T04:36:58.600Z,1012.66
2018-06-19T04:37:58.542Z,1012.71
2018-06-19T04:38:58.627Z,1012.68
2018-06-19T04:39:58.550Z,1012.67
2018-06-19T04:40:58.810Z,1012.61
2018-06-19T04:41:58.605Z,1012.64
2018-06-19T04:42:58.471Z,1012.64
2018-06-19T04:43:59.996Z,1012.64
2018-06-19T04:44:58.535Z,1012.66
2018-06-19T04:45:58.473Z,1012.64
2018-06-19T04:46:58.466Z,1012.72
2018-06-19T04:47:58.701Z,1012.63
2018-06-19T04:48:58.464Z,1012.67
2018-06-19T04:50:58.510Z,1012.64
2018-06-19T04:51:58.402Z,1012.61
2018-06-19T04:52:58.847Z,1012.68
2018-06-19T04:53:58.385Z,1012.56
2018-06-19T04:54:58.874Z,1012.60
2018-06-19T04:55:59.020Z,1012.64
2018-06-19T04:56:58.755Z,1012.59
2018-06-19T04:57:58.549Z,1012.62
2018-06-19T04:59:58.280Z,1012.57
2018-06-19T05:00:59.115Z,1012.52
2018-06-19T05:01:58.565Z,1012.57
2018-06-19T05:02:58.184Z,1012.57
2018-06-19T05:03:58.177Z,1012.58
2018-06-19T05:04:58.237Z,1012.60
2018-06-19T05:06:01.962Z,1012.54
2018-06-19T05:06:58.128Z,1012.54
2018-06-19T05:07:58.177Z,1012.58
2018-06-19T05:08:58.496Z,1012.56
2018-06-19T05:09:58.104Z,1012.57
2018-06-19T05:10:58.101Z,1012.56
2018-06-19T05:11:58.052Z,1012.53
2018-06-19T05:12:58.055Z,1012.58
2018-06-19T05:13:58.108Z,1012.54
2018-06-19T05:14:58.028Z,1012.54
2018-06-19T05:15:58.312Z,1012.60
2018-06-19T05:16:58.092Z,1012.61
2018-06-19T05:17:57.998Z,1012.65
2018-06-19T05:18:57.971Z,1012.58
2018-06-19T05:19:58.007Z,1012.58
2018-06-19T05:21:58.247Z,1012.56
2018-06-19T05:22:57.903Z,1012.54
2018-06-19T05:23:57.897Z,1012.57
2018-06-19T05:24:57.893Z,1012.53
2018-06-19T05:25:57.915Z,1012.64
2018-06-19T05:27:58.260Z,1012.57
2018-06-19T05:28:57.952Z,1012.61
2018-06-19T05:29:58.041Z,1012.58
2018-06-19T05:30:57.902Z,1012.60
2018-06-19T05:31:57.919Z,1012.56
2018-06-19T05:32:57.853Z,1012.56
2018-06-19T05:33:58.139Z,1012.63
2018-06-19T05:34:57.928Z,1012.60
2018-06-19T05:35:57.860Z,1012.62
2018-06-19T05:36:57.843Z,1012.57
2018-06-19T05:37:57.876Z,1012.62
2018-06-19T05:38:57.690Z,1012.55
2018-06-19T05:39:58.016Z,1012.58
2018-06-19T05:40:57.734Z,1012.54
2018-06-19T05:54:02.284Z,1012.71
2018-06-19T05:55:02.271Z,1012.66
2018-06-19T05:56:02.253Z,1012.70
2018-06-19T05:57:02.240Z,1012.73
2018-06-19T05:58:02.238Z,1012.76
2018-06-19T05:59:02.516Z,1012.75
2018-06-19T06:00:02.318Z,1012.80
2018-06-19T06:01:02.189Z,1012.76
2018-06-19T06:02:02.199Z,1012.79
2018-06-19T06:03:02.201Z,1012.81
2018-06-19T06:04:02.155Z,1012.82
2018-06-19T06:05:02.187Z,1012.86
2018-06-19T06:06:02.419Z,1012.98
2018-06-19T06:07:02.121Z,1012.91
2018-06-19T06:08:02.125Z,1012.90
2018-06-19T06:09:02.557Z,1012.93
2018-06-19T06:10:02.075Z,1012.86
2018-06-19T06:11:02.056Z,1012.84
2018-06-19T06:12:02.343Z,1012.89
2018-06-19T06:13:02.039Z,1012.89
2018-06-19T06:14:02.072Z,1012.90
2018-06-19T06:15:02.083Z,1012.87
2018-06-19T06:17:01.985Z,1012.98
2018-06-19T06:18:02.279Z,1012.95
2018-06-19T06:19:01.975Z,1013.05
2018-06-19T06:20:02.120Z,1013.04
2018-06-19T06:21:02.438Z,1012.99
2018-06-19T06:22:01.928Z,1013.07
2018-06-19T06:23:01.903Z,1013.01
2018-06-19T06:24:02.231Z,1013.06
2018-06-19T06:25:01.882Z,1013.08
2018-06-19T06:26:01.863Z,1013.15
2018-06-19T06:27:01.938Z,1013.07
2018-06-19T06:28:01.858Z,1013.05
2018-06-19T06:29:02.045Z,1013.09
2018-06-19T06:30:02.618Z,1013.06
2018-06-19T06:31:07.099Z,1013.06
2018-06-19T06:32:02.316Z,1013.16
2018-06-19T06:33:01.803Z,1013.11
2018-06-19T06:34:01.773Z,1013.07
2018-06-19T06:35:01.753Z,1013.21
2018-06-19T06:36:01.783Z,1013.08
2018-06-19T06:37:02.073Z,1013.18
2018-06-19T06:38:01.707Z,1013.13
2018-06-19T06:39:01.809Z,1013.21
2018-06-19T06:41:01.685Z,1013.22
2018-06-19T06:42:01.710Z,1013.25
2018-06-19T06:43:01.959Z,1013.33
2018-06-19T06:44:01.683Z,1013.26
2018-06-19T06:45:01.632Z,1013.22
2018-06-19T06:46:01.603Z,1013.23
2018-06-19T06:47:01.607Z,1013.27
2018-06-19T06:48:01.610Z,1013.26
2018-06-19T06:49:01.879Z,1013.25
2018-06-19T06:50:01.607Z,1013.21
2018-06-19T06:51:01.559Z,1013.21
2018-06-19T06:52:01.547Z,1013.27
2018-06-19T06:53:01.519Z,1013.26
2018-06-19T06:54:01.546Z,1013.27
2018-06-19T06:55:01.811Z,1013.26
2018-06-19T06:56:01.512Z,1013.36
2018-06-19T06:57:01.513Z,1013.32
2018-06-19T06:58:01.460Z,1013.32
2018-06-19T06:59:01.457Z,1013.33
2018-06-19T07:00:01.549Z,1013.31
2018-06-19T07:01:01.731Z,1013.32
2018-06-19T07:02:01.415Z,1013.31
2018-06-19T07:03:01.405Z,1013.34
2018-06-19T07:04:01.397Z,1013.34
2018-06-19T07:05:01.398Z,1013.37
2018-06-19T07:06:01.415Z,1013.33
2018-06-19T07:07:01.694Z,1013.38
2018-06-19T07:08:01.349Z,1013.39
2018-06-19T07:09:01.328Z,1013.36
2018-06-19T07:10:01.455Z,1013.43
2018-06-19T07:11:01.310Z,1013.33
2018-06-19T07:12:01.290Z,1013.32
2018-06-19T07:13:01.598Z,1013.29
2018-06-19T07:14:01.273Z,1013.31
2018-06-19T07:15:01.264Z,1013.36
2018-06-19T07:16:01.267Z,1013.33
2018-06-19T07:17:01.255Z,1013.44
2018-06-19T07:18:01.219Z,1013.39
2018-06-19T07:19:01.579Z,1013.31
2018-06-19T07:20:01.201Z,1013.28
2018-06-19T07:21:01.508Z,1013.34
2018-06-19T07:22:01.174Z,1013.30
2018-06-19T07:23:01.158Z,1013.26
2018-06-19T07:24:01.151Z,1013.31
2018-06-19T07:25:01.434Z,1013.25
2018-06-19T07:26:01.222Z,1013.25
2018-06-19T07:27:01.111Z,1013.21
2018-06-19T07:28:01.102Z,1013.22
2018-06-19T07:29:01.098Z,1013.25
2018-06-19T07:30:01.074Z,1013.26
2018-06-19T07:31:01.356Z,1013.36
2018-06-19T07:32:01.092Z,1013.37
2018-06-19T07:33:01.274Z,1013.40
2018-06-19T07:34:01.028Z,1013.38
2018-06-19T07:35:01.009Z,1013.52
2018-06-19T07:36:01.018Z,1013.54
2018-06-19T07:37:01.312Z,1013.65
2018-06-19T07:38:01.196Z,1013.63
2018-06-19T07:39:00.961Z,1013.74
2018-06-19T07:40:00.963Z,1013.74
2018-06-19T07:41:00.935Z,1013.75
2018-06-19T07:42:00.940Z,1013.73
2018-06-19T07:43:01.283Z,1013.81
2018-06-19T07:44:00.933Z,1013.74
2018-06-19T07:45:00.926Z,1013.78
2018-06-19T07:46:00.881Z,1013.84
2018-06-19T07:47:00.875Z,1013.89
2018-06-19T07:48:00.917Z,1014.04
2018-06-19T07:49:01.170Z,1014.06
2018-06-19T07:50:00.831Z,1014.29
2018-06-19T07:51:00.831Z,1014.42
2018-06-19T07:52:00.815Z,1014.97
2018-06-19T07:53:00.805Z,1019.98
2018-06-19T07:54:00.841Z,1015.07
2018-06-19T07:55:01.085Z,1014.23
2018-06-19T07:57:00.770Z,1014.05
2018-06-19T07:58:00.762Z,1013.99
2018-06-19T07:59:00.741Z,1013.95
2018-06-19T08:00:00.776Z,1013.97
2018-06-19T08:01:01.092Z,1013.99
2018-06-19T08:02:00.726Z,1013.91
2018-06-19T08:04:00.686Z,1013.93
2018-06-19T08:05:00.680Z,1013.97
2018-06-19T08:06:00.837Z,1014.00
2018-06-19T08:07:01.016Z,1013.97
2018-06-19T08:08:00.668Z,1013.99
2018-06-19T08:09:00.647Z,1013.96
2018-06-19T08:10:00.638Z,1014.06
2018-06-19T08:11:00.632Z,1013.99
2018-06-19T08:12:00.652Z,1014.02
2018-06-19T08:13:00.898Z,1014.03
2018-06-19T08:14:00.587Z,1014.03
2018-06-19T08:15:00.585Z,1014.10
2018-06-19T08:16:00.561Z,1014.11
2018-06-19T08:17:00.549Z,1014.13
2018-06-19T08:18:00.536Z,1014.13
2018-06-19T08:19:00.844Z,1014.23
2018-06-19T08:20:00.518Z,1014.10
2018-06-19T08:21:00.507Z,1014.15
2018-06-19T08:22:00.500Z,1014.12
2018-06-19T08:24:00.557Z,1014.19
2018-06-19T08:25:00.773Z,1014.22
2018-06-19T08:26:00.450Z,1014.18
2018-06-19T08:27:00.445Z,1014.28
2018-06-19T08:28:00.433Z,1014.20
2018-06-19T08:29:00.436Z,1014.25
2018-06-19T08:30:00.493Z,1014.20
2018-06-19T08:31:01.630Z,1014.25
2018-06-19T08:32:00.389Z,1014.27
2018-06-19T08:33:00.495Z,1014.30
2018-06-19T08:34:00.369Z,1014.30
2018-06-19T08:35:00.362Z,1014.33
2018-06-19T08:36:00.420Z,1014.40
2018-06-19T08:37:00.699Z,1014.35
2018-06-19T08:38:00.341Z,1014.35
2018-06-19T08:39:00.318Z,1014.37
2018-06-19T08:40:00.312Z,1014.43
2018-06-19T08:41:00.306Z,1014.58
2018-06-19T08:42:00.409Z,1015.00
2018-06-19T08:43:00.581Z,1015.05
2018-06-19T08:44:00.275Z,1014.56
2018-06-19T08:45:00.341Z,1014.81
2018-06-19T08:46:00.324Z,1014.54
2018-06-19T08:47:00.242Z,1014.40
2018-06-19T08:48:00.371Z,1014.41
2018-06-19T08:49:00.556Z,1014.38
2018-06-19T08:50:00.221Z,1014.40
2018-06-19T08:51:00.210Z,1014.38
2018-06-19T08:52:00.186Z,1014.37
2018-06-19T08:53:00.174Z,1014.44
2018-06-19T08:54:00.575Z,1014.47
2018-06-19T08:55:00.468Z,1014.48
2018-06-19T08:56:00.152Z,1014.55
2018-06-19T08:57:00.189Z,1014.57
2018-06-19T08:58:00.145Z,1014.61
2018-06-19T08:59:00.129Z,1014.66
2018-06-19T09:00:00.171Z,1014.65
2018-06-19T09:01:00.396Z,1015.17
2018-06-19T09:02:00.203Z,1014.95
2018-06-19T09:03:00.102Z,1015.50
2018-06-19T09:04:00.188Z,1015.11
2018-06-19T09:05:00.167Z,1014.89
2018-06-19T09:06:00.061Z,1014.91
2018-06-19T09:07:00.346Z,1015.11
2018-06-19T09:08:00.087Z,1015.02
2018-06-19T09:09:00.035Z,1015.82
2018-06-19T09:10:00.032Z,1015.12
2018-06-19T09:11:00.007Z,1015.10
2018-06-19T09:12:00.001Z,1014.97
2018-06-19T09:13:00.296Z,1014.94
2018-06-19T09:13:59.997Z,1014.91
2018-06-19T09:14:59.998Z,1014.98
2018-06-19T09:15:59.969Z,1015.08
2018-06-19T09:17:00.168Z,1015.03
2018-06-19T09:17:59.962Z,1015.11
2018-06-19T09:19:00.240Z,1015.14
2018-06-19T09:21:00.126Z,1014.87
2018-06-19T09:21:59.918Z,1014.96
2018-06-19T09:22:59.898Z,1015.40
2018-06-19T09:25:00.920Z,1014.73
2018-06-19T09:26:00.235Z,1014.80
2018-06-19T09:27:00.008Z,1014.82
2018-06-19T09:28:00.109Z,1014.87
2018-06-19T09:29:00.954Z,1014.90
2018-06-19T09:29:59.927Z,1014.95
2018-06-19T09:31:00.134Z,1014.86
2018-06-19T09:31:59.826Z,1014.86
2018-06-19T09:33:00.097Z,1014.74
2018-06-19T09:34:01.829Z,1014.81
2018-06-19T09:34:59.806Z,1014.99
2018-06-19T09:35:59.795Z,1015.16
2018-06-19T09:37:00.126Z,1014.85
2018-06-19T09:37:59.775Z,1014.95
2018-06-19T09:39:02.012Z,1014.89
2018-06-19T09:39:59.778Z,1014.91
2018-06-19T09:40:59.746Z,1014.84
2018-06-19T09:41:59.743Z,1014.80
2018-06-19T09:43:00.101Z,1014.81
2018-06-19T09:43:59.744Z,1014.73
2018-06-19T09:44:59.705Z,1014.78
2018-06-19T09:45:59.697Z,1014.79
2018-06-19T09:46:59.739Z,1014.80
2018-06-19T09:47:59.678Z,1014.82
2018-06-19T09:49:00.077Z,1014.86
2018-06-19T09:49:59.784Z,1014.85
2018-06-19T09:50:59.777Z,1014.79
2018-06-19T09:51:59.641Z,1014.84
2018-06-19T09:52:59.633Z,1014.86
2018-06-19T09:53:59.723Z,1014.89
2018-06-19T09:55:00.032Z,1014.83
2018-06-19T09:55:59.603Z,1014.81
2018-06-19T09:56:59.594Z,1014.84
2018-06-19T09:57:59.587Z,1014.83
2018-06-19T09:58:59.770Z,1014.86
2018-06-19T09:59:59.679Z,1014.87
2018-06-19T10:00:59.964Z,1014.88
2018-06-19T10:01:59.652Z,1014.92
2018-06-19T10:02:59.646Z,1014.87
2018-06-19T10:03:59.645Z,1014.91
2018-06-19T10:04:59.675Z,1014.88
2018-06-19T10:05:59.681Z,1014.80
2018-06-19T10:06:59.814Z,1014.88
2018-06-19T10:07:59.515Z,1014.79
2018-06-19T10:08:59.477Z,1014.74
2018-06-19T10:09:59.503Z,1014.70
2018-06-19T10:10:59.509Z,1014.70
2018-06-19T10:11:59.476Z,1014.69
2018-06-19T10:12:59.746Z,1014.65
2018-06-19T10:13:59.431Z,1014.61
2018-06-19T10:14:59.437Z,1014.64
2018-06-19T10:15:59.418Z,1014.67
2018-06-19T10:16:59.405Z,1014.83
2018-06-19T10:17:59.401Z,1014.77
2018-06-19T10:18:59.688Z,1014.86
2018-06-19T10:19:59.375Z,1015.06
2018-06-19T10:20:59.373Z,1015.04
2018-06-19T10:21:59.366Z,1015.18
2018-06-19T10:22:59.353Z,1015.25
2018-06-19T10:23:59.361Z,1015.31
2018-06-19T10:24:59.651Z,1015.25
2018-06-19T10:25:59.401Z,1015.28
2018-06-19T10:26:59.308Z,1015.59
2018-06-19T10:27:59.301Z,1015.52
2018-06-19T10:28:59.285Z,1016.09
2018-06-19T10:29:59.610Z,1015.72
2018-06-19T10:30:59.612Z,1015.43
2018-06-19T10:31:59.264Z,1015.31
2018-06-19T10:32:59.252Z,1015.37
2018-06-19T10:33:59.258Z,1015.54
2018-06-19T10:34:59.255Z,1015.36
2018-06-19T10:35:59.234Z,1015.17
2018-06-19T10:36:59.531Z,1015.06
2018-06-19T10:38:59.223Z,1015.08
2018-06-19T10:39:59.194Z,1015.02
2018-06-19T10:40:59.183Z,1014.98
2018-06-19T10:41:59.188Z,1015.02
2018-06-19T10:42:59.478Z,1015.02
2018-06-19T10:43:59.169Z,1014.98
2018-06-19T10:44:59.151Z,1014.99
2018-06-19T10:45:59.243Z,1015.17
2018-06-19T10:46:59.246Z,1015.34
2018-06-19T10:47:59.195Z,1015.29
2018-06-19T10:48:59.422Z,1015.44
2018-06-19T10:49:59.114Z,1015.35
2018-06-19T10:50:59.127Z,1015.73
2018-06-19T10:51:59.097Z,1015.76
2018-06-19T10:52:59.086Z,1015.84
2018-06-19T10:53:59.077Z,1015.66
2018-06-19T10:54:59.075Z,1015.61
2018-06-19T10:55:59.366Z,1015.92
2018-06-19T10:56:59.070Z,1015.80
2018-06-19T10:57:59.059Z,1015.43
2018-06-19T10:58:59.093Z,1015.54
2018-06-19T10:59:59.035Z,1015.32
2018-06-19T11:00:59.037Z,1015.27
2018-06-19T11:01:59.386Z,1015.15
2018-06-19T11:02:59.021Z,1015.09
2018-06-19T11:03:59.017Z,1015.10
2018-06-19T11:04:59.031Z,1015.03
2018-06-19T11:05:58.994Z,1015.03
2018-06-19T11:06:58.991Z,1015.00
2018-06-19T11:07:59.279Z,1014.93
2018-06-19T11:08:58.991Z,1014.91
2018-06-19T11:09:58.970Z,1014.89
2018-06-19T11:10:58.962Z,1014.93
2018-06-19T11:11:58.952Z,1014.97
2018-06-19T11:12:58.951Z,1014.93
2018-06-19T11:13:59.250Z,1014.95
2018-06-19T11:14:58.934Z,1014.95
2018-06-19T11:15:58.928Z,1014.97
2018-06-19T11:16:58.924Z,1014.95
2018-06-19T11:17:58.923Z,1015.39
2018-06-19T11:20:00.326Z,1015.47
2018-06-19T11:20:59.229Z,1015.02
2018-06-19T11:21:59.214Z,1015.01
2018-06-19T11:22:59.199Z,1015.00
2018-06-19T11:23:58.897Z,1015.01
2018-06-19T11:24:59.239Z,1015.03
2018-06-19T11:25:58.856Z,1014.99
2018-06-19T11:26:58.858Z,1014.94
2018-06-19T11:27:58.894Z,1015.12
2018-06-19T11:28:58.863Z,1015.13
2018-06-19T11:29:58.829Z,1015.16
2018-06-19T11:30:59.154Z,1015.18
2018-06-19T11:31:58.790Z,1015.17
2018-06-19T11:32:58.965Z,1015.22
2018-06-19T11:33:58.780Z,1015.30
2018-06-19T11:34:58.872Z,1015.34
2018-06-19T11:35:58.870Z,1015.48
2018-06-19T11:36:59.052Z,1015.55
2018-06-19T11:37:58.741Z,1015.38
2018-06-19T11:38:58.741Z,1015.46
2018-06-19T11:39:58.731Z,1015.33
2018-06-19T11:40:58.715Z,1015.49
2018-06-19T11:41:58.707Z,1015.41
2018-06-19T11:42:59.000Z,1016.49
2018-06-19T11:43:58.750Z,1016.31
2018-06-19T11:44:58.694Z,1015.18
2018-06-19T11:45:58.678Z,1015.10
2018-06-19T11:46:58.664Z,1015.04
2018-06-19T11:47:58.682Z,1015.02
2018-06-19T11:48:58.951Z,1014.97
2018-06-19T11:49:58.691Z,1014.93
2018-06-19T11:50:58.768Z,1014.90
2018-06-19T11:51:58.633Z,1014.98
2018-06-19T11:52:58.627Z,1014.91
2018-06-19T11:53:58.645Z,1014.99
2018-06-19T11:54:59.041Z,1015.03
2018-06-19T11:55:58.610Z,1015.10
2018-06-19T11:56:58.644Z,1015.14
2018-06-19T11:57:58.585Z,1015.22
2018-06-19T11:58:58.584Z,1015.28
2018-06-19T11:59:58.567Z,1015.31
2018-06-19T12:00:58.859Z,1015.30
2018-06-19T12:01:58.547Z,1015.24
2018-06-19T12:02:58.544Z,1015.25
2018-06-19T12:03:58.559Z,1015.19
2018-06-19T12:04:58.530Z,1015.22
2018-06-19T12:05:58.521Z,1016.05
2018-06-19T12:06:58.832Z,1015.44
2018-06-19T12:07:58.501Z,1015.33
2018-06-19T12:08:58.486Z,1015.34
2018-06-19T12:09:58.480Z,1015.34
2018-06-19T12:10:58.476Z,1015.89
2018-06-19T12:11:58.475Z,1015.36
2018-06-19T12:12:58.571Z,1015.33
2018-06-19T12:13:58.763Z,1015.34
2018-06-19T12:14:58.451Z,1015.36
2018-06-19T12:15:58.489Z,1015.36
2018-06-19T12:16:58.494Z,1015.34
2018-06-19T12:17:58.420Z,1015.37
2018-06-19T12:18:58.425Z,1015.40
2018-06-19T12:19:58.763Z,1015.27
2018-06-19T12:20:58.395Z,1015.29
2018-06-19T12:21:58.545Z,1015.39
2018-06-19T12:22:58.385Z,1015.22
2018-06-19T12:23:58.378Z,1015.25
2018-06-19T12:24:58.382Z,1015.27
2018-06-19T12:25:58.652Z,1015.23
2018-06-19T12:26:58.348Z,1015.29
2018-06-19T12:27:58.867Z,1015.30
2018-06-19T12:28:58.331Z,1015.22
2018-06-19T12:29:58.326Z,1015.23
2018-06-19T12:30:58.341Z,1015.22
2018-06-19T12:31:58.619Z,1015.20
2018-06-19T12:32:58.319Z,1015.19
2018-06-19T12:33:58.301Z,1015.19
2018-06-19T12:34:58.338Z,1015.12
2018-06-19T12:35:58.284Z,1015.14
2018-06-19T12:36:58.321Z,1015.16
2018-06-19T12:37:58.557Z,1015.14
2018-06-19T12:38:58.357Z,1015.23
2018-06-19T12:39:58.361Z,1015.17
2018-06-19T12:40:58.350Z,1015.13
2018-06-19T12:41:58.227Z,1015.12
2018-06-19T12:42:58.237Z,1015.13
2018-06-19T12:43:58.535Z,1015.16
2018-06-19T12:44:58.204Z,1015.24
2018-06-19T12:45:58.270Z,1015.30
2018-06-19T12:46:58.176Z,1015.36
2018-06-19T12:47:58.184Z,1015.36
2018-06-19T12:48:58.210Z,1015.34
2018-06-19T12:49:58.503Z,1015.32
2018-06-19T12:50:58.150Z,1015.34
2018-06-19T12:51:58.136Z,1015.36
2018-06-19T12:52:58.120Z,1015.43
2018-06-19T12:54:58.107Z,1015.60